Pagina principală
METAR-TAF:

METAR-TAF

Aeroporturi :

Lewistown Municipal Airport

Lewistown, Montana, Statele Unite ale Americii

Latitudine: 47-02-57N, longitudine: 109-27-59W, elevație: 1270 m

Observații meteo curente

Raportul a fost făcut în urmă cu 40 de minute, la 22:54 UTC
Temperatură 36°C
Umiditate 16%
Presiune 1018 hPa
Vizibilitate: 16.1 km
Cer senin

METAR: KLWT 232254Z AUTO 10SM CLR 36/06 A3005 RMK AO2 SLP127 T03610056

Ora: 17:34 (23:34 UTC)

Prognoză

Raportul a fost făcut în urmă cu 6 ore și 7 de minute, la 17:27 UTC
Prognoză valabilă de la 23 ora 18 UTC la 24 ora 18 UTC
Vânt 5 kt din direcții variabile
Vizibilitate: 10 km
Cer senin

TAF: KLWT 231727Z 2318/2418 VRB05KT P6SM SKC

Observații și prognoze meteo pentru peste 4.000 de aeroporturi (rapoarte METAR și TAF).

Stațiile disponibile sunt reprezentate pe hartă prin puncte galbene și roșii.

Țineți indicatorul mouse-ului pe punctul dorit pentru a vedea denumirea stației.

Apoi, faceți clic pentru a vedea observațiile și prognozele meteorologice.

Pentru a schimba harta: Pentru mărire, faceți clic pe butoanele verzi cu cruce neagră; pentru micșorare, pe butonul verde cu o liniuță; pentru hărți învecinate, pe săgețile verzi.


METAR-TAF: